createdAt,value
2022-09-15T00:04:03.189Z,4.20
2022-09-15T00:20:56.403Z,4.20
2022-09-15T00:37:45.112Z,4.70
2022-09-15T00:54:39.220Z,5.30
2022-09-15T01:11:29.386Z,5.30
2022-09-15T01:28:59.387Z,5.60
2022-09-15T01:45:49.925Z,6.50
2022-09-15T02:02:43.343Z,7.00
2022-09-15T02:19:35.575Z,7.60
2022-09-15T02:36:28.049Z,7.00
2022-09-15T02:53:16.672Z,7.60
2022-09-15T03:10:06.337Z,7.40
2022-09-15T03:26:55.092Z,7.10
2022-09-15T03:43:46.902Z,7.90
2022-09-15T04:00:35.888Z,7.50
2022-09-15T04:17:24.066Z,6.60
2022-09-15T04:34:14.258Z,7.20
2022-09-15T04:51:07.071Z,7.30
2022-09-15T05:07:55.802Z,7.50
2022-09-15T05:24:47.970Z,7.20
2022-09-15T05:41:39.704Z,6.50
2022-09-15T05:58:31.512Z,5.90
2022-09-15T06:15:20.152Z,5.00
2022-09-15T06:32:11.616Z,5.10
2022-09-15T06:49:00.887Z,6.20
2022-09-15T07:05:50.017Z,3.60
2022-09-15T07:22:38.527Z,3.30
2022-09-15T07:39:27.238Z,3.10
2022-09-15T07:56:16.464Z,3.30
2022-09-15T08:13:04.706Z,3.10
2022-09-15T08:29:52.799Z,2.50
2022-09-15T08:46:49.540Z,2.20
2022-09-15T09:03:50.059Z,2.10
2022-09-15T09:20:50.382Z,1.70
2022-09-15T09:37:38.813Z,2.70
2022-09-15T09:54:29.289Z,2.30
2022-09-15T10:11:17.700Z,2.30
2022-09-15T10:28:16.766Z,2.10
2022-09-15T10:45:18.984Z,2.10
2022-09-15T11:02:33.070Z,2.20
2022-09-15T11:19:43.019Z,1.90
2022-09-15T11:36:36.660Z,1.90
2022-09-15T11:53:34.310Z,1.90
2022-09-15T12:10:26.714Z,1.80
2022-09-15T12:27:19.198Z,1.50
2022-09-15T12:44:16.831Z,1.80
2022-09-15T13:01:38.622Z,1.50
2022-09-15T13:18:27.760Z,1.80
2022-09-15T13:35:39.876Z,1.70
2022-09-15T13:53:16.889Z,1.70
2022-09-15T14:10:06.525Z,1.60
2022-09-15T14:26:55.037Z,1.60
2022-09-15T14:43:46.284Z,1.30
2022-09-15T15:00:39.966Z,1.80
2022-09-15T15:17:34.689Z,1.80
2022-09-15T15:34:27.383Z,1.70
2022-09-15T15:51:16.346Z,1.40
2022-09-15T16:08:07.886Z,1.80
2022-09-15T16:24:56.408Z,1.90
2022-09-15T16:41:45.128Z,2.20
2022-09-15T16:58:34.256Z,1.90
2022-09-15T17:15:25.552Z,2.40
2022-09-15T17:32:14.363Z,2.00
2022-09-15T17:49:03.694Z,2.50
2022-09-15T18:05:52.495Z,2.80
2022-09-15T18:22:41.146Z,3.40
2022-09-15T18:39:29.783Z,3.20
2022-09-15T18:56:18.602Z,3.10
2022-09-15T19:13:06.650Z,2.40
2022-09-15T19:29:55.011Z,2.70
2022-09-15T19:46:43.662Z,3.10
2022-09-15T20:03:31.595Z,3.30
2022-09-15T20:20:20.880Z,2.50
2022-09-15T20:37:09.414Z,3.00
2022-09-15T20:54:00.686Z,3.20
2022-09-15T21:10:49.689Z,3.80
2022-09-15T21:27:37.834Z,3.60
2022-09-15T21:44:26.286Z,3.70
2022-09-15T22:01:19.087Z,3.60
2022-09-15T22:18:08.226Z,3.50
2022-09-15T22:34:56.171Z,3.40
2022-09-15T22:51:44.954Z,3.50
2022-09-15T23:08:33.854Z,3.30
2022-09-15T23:25:22.186Z,3.70
2022-09-15T23:42:16.758Z,3.40
2022-09-15T23:59:06.694Z,3.10
